createdAt,value
2019-03-11T00:01:50.707Z,100139.53
2019-03-11T00:04:56.358Z,100142.97
2019-03-11T00:08:13.066Z,100145.77
2019-03-11T00:11:29.853Z,100132.56
2019-03-11T00:14:52.578Z,100130.14
2019-03-11T00:17:59.789Z,100134.12
2019-03-11T00:21:07.125Z,100143.55
2019-03-11T00:24:23.818Z,100131.69
2019-03-11T00:27:40.496Z,100136.09
2019-03-11T00:30:47.776Z,100132.31
2019-03-11T00:33:54.907Z,100133.97
2019-03-11T00:37:02.058Z,100145.36
2019-03-11T00:40:09.444Z,100135.79
2019-03-11T00:43:26.140Z,100118.88
2019-03-11T00:46:33.421Z,100119.88
2019-03-11T00:49:38.944Z,100132.83
2019-03-11T00:52:46.325Z,100120.02
2019-03-11T00:56:03.010Z,100124.08
2019-03-11T00:59:10.212Z,100133.45
2019-03-11T01:02:26.829Z,100127.42
2019-03-11T01:05:34.332Z,100129.98
2019-03-11T01:08:50.975Z,100122.42
2019-03-11T01:12:08.285Z,100123.88
2019-03-11T01:15:15.578Z,100118.70
2019-03-11T01:18:32.122Z,100120.12
2019-03-11T01:21:39.319Z,100128.02
2019-03-11T01:24:46.570Z,100114.92
2019-03-11T01:28:03.489Z,100120.08
2019-03-11T01:31:20.175Z,100114.54
2019-03-11T01:34:27.323Z,100103.24
2019-03-11T01:37:34.447Z,100108.41
2019-03-11T01:40:42.097Z,100115.31
2019-03-11T01:43:58.506Z,100103.31
2019-03-11T01:47:05.706Z,100110.91
2019-03-11T01:50:13.269Z,100114.14
2019-03-11T01:53:29.640Z,100101.45
2019-03-11T01:56:36.780Z,100107.50
2019-03-11T01:59:43.915Z,100097.84
2019-03-11T02:02:51.118Z,100095.31
2019-03-11T02:05:58.361Z,100099.34
2019-03-11T02:09:06.445Z,100085.64
2019-03-11T02:12:13.696Z,100085.05
2019-03-11T02:15:20.998Z,100079.69
2019-03-11T02:18:28.267Z,100083.19
2019-03-11T02:21:36.093Z,100074.62
2019-03-11T02:24:53.140Z,100070.67
2019-03-11T02:28:09.591Z,100072.81
2019-03-11T02:31:18.383Z,100063.73
2019-03-11T02:34:25.504Z,100064.42
2019-03-11T02:37:32.743Z,100059.44
2019-03-11T02:40:39.993Z,100049.05
2019-03-11T02:43:47.199Z,100038.91
2019-03-11T02:47:04.032Z,100038.27
2019-03-11T02:50:11.524Z,100030.18
2019-03-11T02:53:27.943Z,100029.88
2019-03-11T02:56:35.294Z,100030.77
2019-03-11T02:59:41.338Z,100022.67
2019-03-11T03:03:09.063Z,100018.61
2019-03-11T03:06:39.283Z,100009.14
2019-03-11T03:09:46.455Z,100005.51
2019-03-11T03:12:53.737Z,100003.64
2019-03-11T03:16:00.928Z,99991.79
2019-03-11T03:19:08.007Z,99988.68
2019-03-11T03:22:15.127Z,99991.91
2019-03-11T03:25:33.557Z,99989.41
2019-03-11T03:28:31.289Z,99986.63
2019-03-11T03:31:38.484Z,99981.67
2019-03-11T03:34:45.618Z,99994.78
2019-03-11T03:37:53.014Z,99972.70
2019-03-11T03:41:09.595Z,99972.31
2019-03-11T03:44:16.738Z,99981.09
2019-03-11T03:47:24.268Z,99966.36
2019-03-11T03:50:41.088Z,99979.43
2019-03-11T03:53:57.569Z,99963.97
2019-03-11T03:57:04.709Z,99973.09
2019-03-11T04:00:11.930Z,99978.98
2019-03-11T04:03:19.018Z,99965.92
2019-03-11T04:06:26.262Z,99975.58
2019-03-11T04:09:33.456Z,99985.30
2019-03-11T04:12:40.855Z,99964.20
2019-03-11T04:15:47.990Z,99968.22
2019-03-11T04:18:56.455Z,99972.45
2019-03-11T04:22:04.065Z,99990.80
2019-03-11T04:25:20.740Z,99984.23
2019-03-11T04:28:27.942Z,99982.96
2019-03-11T04:31:35.248Z,99974.69
2019-03-11T04:34:51.841Z,99982.41
2019-03-11T04:37:59.191Z,100006.59
2019-03-11T04:41:06.338Z,99982.67
2019-03-11T04:44:13.549Z,99987.86
2019-03-11T04:47:20.741Z,99993.11
2019-03-11T04:50:27.945Z,100000.05
2019-03-11T04:53:44.730Z,100000.44
2019-03-11T04:56:52.048Z,100001.31
2019-03-11T05:00:09.288Z,100004.02
2019-03-11T05:03:16.529Z,100012.16
2019-03-11T05:06:23.661Z,100019.41
2019-03-11T05:09:30.787Z,100018.27
2019-03-11T05:12:49.993Z,100023.50
2019-03-11T05:15:55.499Z,100027.30
2019-03-11T05:19:02.708Z,100025.34
2019-03-11T05:22:09.988Z,100027.68
2019-03-11T05:25:17.290Z,100029.53
2019-03-11T05:28:24.429Z,100034.71
2019-03-11T05:31:41.252Z,100029.69
2019-03-11T05:34:58.011Z,100043.31
2019-03-11T05:38:05.297Z,100036.55
2019-03-11T05:41:21.966Z,100037.30
2019-03-11T05:44:38.768Z,100041.06
2019-03-11T05:47:55.690Z,100050.27
2019-03-11T05:51:12.253Z,100041.05
2019-03-11T05:54:19.482Z,100037.85
2019-03-11T05:57:26.632Z,100042.12
2019-03-11T06:00:34.082Z,100034.30
2019-03-11T06:03:50.602Z,100035.32
2019-03-11T06:06:57.817Z,100040.19
2019-03-11T06:10:06.069Z,100040.81
2019-03-11T06:13:13.228Z,100038.20
2019-03-11T06:16:20.448Z,100045.72
2019-03-11T06:19:27.739Z,100046.98
2019-03-11T06:22:35.197Z,100050.15
2019-03-11T06:25:42.405Z,100050.51
2019-03-11T06:28:49.624Z,100055.77
2019-03-11T06:31:56.748Z,100058.14
2019-03-11T06:35:04.280Z,100060.75
2019-03-11T06:38:11.452Z,100065.89
2019-03-11T06:41:18.622Z,100066.84
2019-03-11T06:44:25.745Z,100071.47
2019-03-11T06:47:33.109Z,100072.09
2019-03-11T06:50:40.264Z,100075.89
2019-03-11T06:53:57.112Z,100090.88
2019-03-11T06:57:04.351Z,100093.81
2019-03-11T07:00:13.160Z,100101.89
2019-03-11T07:03:20.370Z,100106.00
2019-03-11T07:06:27.518Z,100108.21
2019-03-11T07:09:34.710Z,100112.17
2019-03-11T07:12:42.004Z,100111.37
2019-03-11T07:15:49.319Z,100123.56
2019-03-11T07:19:06.029Z,100136.78
2019-03-11T07:22:14.631Z,100151.07
2019-03-11T07:25:21.949Z,100149.99
2019-03-11T07:28:29.181Z,100151.84
2019-03-11T07:31:36.450Z,100154.59
2019-03-11T07:34:53.210Z,100131.13
2019-03-11T07:38:00.455Z,100147.41
2019-03-11T07:41:07.671Z,100150.25
2019-03-11T07:44:24.322Z,100151.02
2019-03-11T07:47:31.500Z,100154.96
2019-03-11T07:50:38.696Z,100160.06
2019-03-11T07:53:45.915Z,100157.96
2019-03-11T07:56:53.141Z,100160.93
2019-03-11T08:00:00.397Z,100172.61
2019-03-11T08:03:07.601Z,100171.23
2019-03-11T08:06:24.348Z,100175.64
2019-03-11T08:13:54.246Z,100209.02
2019-03-11T08:17:10.726Z,100209.34
2019-03-11T08:20:27.685Z,100214.59
2019-03-11T08:23:44.445Z,100215.09
2019-03-11T08:27:01.421Z,100217.45
2019-03-11T08:30:09.970Z,100205.63
2019-03-11T08:33:17.178Z,100206.41
2019-03-11T08:36:24.647Z,100204.23
2019-03-11T08:39:30.724Z,100205.63
2019-03-11T08:42:49.601Z,100208.19
2019-03-11T08:46:06.428Z,100212.64
2019-03-11T08:49:13.752Z,100220.63
2019-03-11T08:52:30.314Z,100221.28
2019-03-11T08:55:37.496Z,100221.03
2019-03-11T08:58:44.955Z,100218.43
2019-03-11T09:02:01.569Z,100235.39
2019-03-11T09:05:18.398Z,100238.11
2019-03-11T09:08:25.604Z,100247.98
2019-03-11T09:11:32.751Z,100245.73
2019-03-11T09:14:39.960Z,100250.63
2019-03-11T09:17:47.299Z,100259.05
2019-03-11T09:21:05.085Z,100251.52
2019-03-11T09:24:19.037Z,100265.81
2019-03-11T09:27:21.426Z,100266.80
2019-03-11T09:30:28.648Z,100267.12
2019-03-11T09:33:35.788Z,100268.89
2019-03-11T09:36:42.994Z,100272.41
2019-03-11T09:39:50.124Z,100278.34
2019-03-11T09:42:57.270Z,100282.47
2019-03-11T09:46:04.479Z,100275.98
2019-03-11T09:49:11.826Z,100282.28
2019-03-11T09:52:19.040Z,100285.36
2019-03-11T09:55:26.340Z,100286.73
2019-03-11T09:58:33.593Z,100283.65
2019-03-11T10:01:40.693Z,100287.60
2019-03-11T10:04:47.869Z,100290.63
2019-03-11T10:07:55.375Z,100279.70
2019-03-11T10:11:11.947Z,100289.22
2019-03-11T10:14:28.740Z,100283.42
2019-03-11T10:17:35.939Z,100288.50
2019-03-11T10:20:43.082Z,100290.80
2019-03-11T10:23:50.310Z,100299.95
2019-03-11T10:26:57.448Z,100301.22
2019-03-11T10:30:05.954Z,100302.84
2019-03-11T10:33:14.381Z,100304.41
2019-03-11T10:36:21.671Z,100313.88
2019-03-11T10:39:28.899Z,100316.73
2019-03-11T10:42:36.069Z,100310.05
2019-03-11T10:45:43.184Z,100316.13
2019-03-11T10:48:50.330Z,100314.08
2019-03-11T10:51:57.742Z,100313.91
2019-03-11T10:55:05.174Z,100315.83
2019-03-11T10:58:12.392Z,100323.88
2019-03-11T11:01:19.526Z,100328.03
2019-03-11T11:04:26.904Z,100327.42
2019-03-11T11:07:34.058Z,100324.01
2019-03-11T11:10:41.285Z,100332.89
2019-03-11T11:13:48.462Z,100340.98
2019-03-11T11:16:55.641Z,100337.73
2019-03-11T11:20:04.022Z,100347.33
2019-03-11T11:23:11.288Z,100337.72
2019-03-11T11:26:18.507Z,100350.98
2019-03-11T11:29:25.737Z,100348.73
2019-03-11T11:32:32.882Z,100347.57
2019-03-11T11:35:40.268Z,100355.05
2019-03-11T11:38:47.484Z,100350.48
2019-03-11T11:41:54.792Z,100353.32
2019-03-11T11:45:02.100Z,100344.16
2019-03-11T11:48:09.509Z,100350.13
2019-03-11T11:51:16.644Z,100356.70
2019-03-11T11:54:23.807Z,100357.16
2019-03-11T11:57:30.932Z,100350.67
2019-03-11T12:00:39.842Z,100355.41
2019-03-11T12:03:46.970Z,100377.86
2019-03-11T12:06:54.256Z,100376.02
2019-03-11T12:10:01.580Z,100386.09
2019-03-11T12:13:07.659Z,100396.31
2019-03-11T12:16:14.870Z,100402.12
2019-03-11T12:19:22.051Z,100399.87
2019-03-11T12:22:29.173Z,100401.58
2019-03-11T12:25:51.647Z,100398.66
2019-03-11T12:29:08.269Z,100401.33
2019-03-11T12:32:15.532Z,100411.94
2019-03-11T12:35:22.779Z,100418.98
2019-03-11T12:38:39.381Z,100409.49
2019-03-11T12:41:46.804Z,100406.85
2019-03-11T12:45:03.425Z,100401.31
2019-03-11T12:48:10.650Z,100408.34
2019-03-11T12:51:17.784Z,100409.38
2019-03-11T12:54:25.109Z,100408.64
2019-03-11T12:57:42.024Z,100404.48
2019-03-11T13:00:58.633Z,100412.00
2019-03-11T13:04:05.852Z,100417.77
2019-03-11T13:07:13.052Z,100416.00
2019-03-11T13:10:20.819Z,100430.77
2019-03-11T13:13:28.295Z,100434.25
2019-03-11T13:16:35.535Z,100419.97
2019-03-11T13:19:42.731Z,100428.97
2019-03-11T13:22:50.754Z,100430.42
2019-03-11T13:26:07.512Z,100431.31
2019-03-11T13:29:24.195Z,100439.48
2019-03-11T13:32:31.476Z,100445.19
2019-03-11T13:35:38.655Z,100449.15
2019-03-11T13:38:45.872Z,100447.60
2019-03-11T13:42:02.561Z,100444.11
2019-03-11T13:45:09.432Z,100462.81
2019-03-11T13:48:16.779Z,100452.76
2019-03-11T13:51:24.075Z,100458.13
2019-03-11T13:54:31.211Z,100449.79
2019-03-11T13:57:38.478Z,100459.92
2019-03-11T14:00:56.046Z,100461.30
2019-03-11T14:04:04.324Z,100461.00
2019-03-11T14:07:20.961Z,100475.21
2019-03-11T14:10:28.200Z,100486.73
2019-03-11T14:13:44.869Z,100482.48
2019-03-11T14:16:52.005Z,100486.23
2019-03-11T14:19:59.224Z,100495.73
2019-03-11T14:23:06.363Z,100517.19
2019-03-11T14:26:13.872Z,100510.27
2019-03-11T14:29:30.449Z,100507.34
2019-03-11T14:32:37.612Z,100523.12
2019-03-11T14:35:44.739Z,100522.17
2019-03-11T14:38:51.885Z,100516.73
2019-03-11T14:41:59.045Z,100536.13
2019-03-11T14:45:08.697Z,100526.91
2019-03-11T14:48:15.952Z,100538.95
2019-03-11T14:51:23.233Z,100543.06
2019-03-11T14:54:30.361Z,100547.41
2019-03-11T14:57:37.598Z,100557.66
2019-03-11T15:00:45.329Z,100562.95
2019-03-11T15:03:53.136Z,100574.58
2019-03-11T15:07:09.800Z,100574.81
2019-03-11T15:10:26.470Z,100589.22
2019-03-11T15:13:33.910Z,100590.05
2019-03-11T15:16:50.427Z,100592.05
2019-03-11T15:19:57.605Z,100597.64
2019-03-11T15:23:10.861Z,100596.93
2019-03-11T15:26:25.391Z,100606.17
2019-03-11T15:29:41.557Z,100610.72
2019-03-11T15:32:48.855Z,100622.03
2019-03-11T15:36:05.597Z,100625.87
2019-03-11T15:39:12.940Z,100636.67
2019-03-11T15:42:29.564Z,100636.95
2019-03-11T15:45:38.770Z,100646.53
2019-03-11T15:48:46.262Z,100665.27
2019-03-11T15:51:54.087Z,100672.62
2019-03-11T15:55:01.365Z,100665.94
2019-03-11T15:58:08.625Z,100670.69
2019-03-11T16:01:15.832Z,100673.28
2019-03-11T16:04:23.496Z,100680.13
2019-03-11T16:07:39.945Z,100689.72
2019-03-11T16:10:47.270Z,100698.06
2019-03-11T16:14:04.542Z,100703.34
2019-03-11T16:17:11.924Z,100715.94
2019-03-11T16:20:19.228Z,100714.18
2019-03-11T16:23:26.365Z,100713.41
2019-03-11T16:26:33.595Z,100727.06
2019-03-11T16:29:40.762Z,100730.05
2019-03-11T16:32:58.509Z,100737.78
2019-03-11T16:35:57.015Z,100743.71
2019-03-11T16:39:04.959Z,100748.50
2019-03-11T16:42:21.497Z,100743.52
2019-03-11T16:45:28.745Z,100757.16
2019-03-11T16:48:45.470Z,100767.92
2019-03-11T16:51:52.624Z,100783.23
2019-03-11T16:55:00.777Z,100786.04
2019-03-11T16:58:08.918Z,100792.68
2019-03-11T17:01:25.529Z,100793.72
2019-03-11T17:04:32.740Z,100805.77
2019-03-11T17:07:39.952Z,100817.16
2019-03-11T17:10:47.154Z,100825.22
2019-03-11T17:13:54.276Z,100831.49
2019-03-11T17:17:11.133Z,100840.52
2019-03-11T17:20:18.476Z,100849.75
2019-03-11T17:23:34.981Z,100858.66
2019-03-11T17:26:42.212Z,100871.94
2019-03-11T17:29:49.484Z,100882.39
2019-03-11T17:33:06.557Z,100885.17
2019-03-11T17:36:22.976Z,100895.64
2019-03-11T17:39:30.109Z,100911.17
2019-03-11T17:42:37.484Z,100919.53
2019-03-11T17:45:54.197Z,100923.86
2019-03-11T17:49:11.137Z,100934.00
2019-03-11T17:52:27.686Z,100941.84
2019-03-11T17:55:34.831Z,100952.67
2019-03-11T17:58:42.041Z,100953.84
2019-03-11T18:01:49.319Z,100963.72
2019-03-11T18:04:56.531Z,100966.80
2019-03-11T18:08:03.782Z,100975.70
2019-03-11T18:11:11.197Z,100981.25
2019-03-11T18:14:27.875Z,100999.59
2019-03-11T18:17:44.433Z,101003.70
2019-03-11T18:21:01.298Z,101004.17
2019-03-11T18:24:18.660Z,101013.02
2019-03-11T18:27:25.895Z,101025.30
2019-03-11T18:30:33.253Z,101028.45
2019-03-11T18:33:40.407Z,101035.41
2019-03-11T18:36:47.658Z,101048.41
2019-03-11T18:39:54.834Z,101048.20
2019-03-11T18:43:02.124Z,101056.77
2019-03-11T18:46:09.338Z,101072.53
2019-03-11T18:49:16.936Z,101083.92
2019-03-11T18:52:24.487Z,101083.16
2019-03-11T18:55:31.747Z,101088.87
2019-03-11T18:58:38.971Z,101102.61
2019-03-11T19:01:48.398Z,101109.09
2019-03-11T19:04:55.493Z,101118.04
2019-03-11T19:08:02.949Z,101116.41
2019-03-11T19:11:10.277Z,101119.69
2019-03-11T19:14:17.646Z,101119.02
2019-03-11T19:17:25.303Z,101119.54
2019-03-11T19:20:32.763Z,101129.63
2019-03-11T19:23:49.301Z,101124.52
2019-03-11T19:26:56.479Z,101126.37
2019-03-11T19:30:16.004Z,101123.86
2019-03-11T19:33:23.171Z,101129.91
2019-03-11T19:36:30.520Z,101138.87
2019-03-11T19:39:37.807Z,101144.95
2019-03-11T19:42:45.087Z,101148.35
2019-03-11T19:45:52.328Z,101166.64
2019-03-11T19:48:59.618Z,101172.30
2019-03-11T19:52:06.887Z,101181.56
2019-03-11T19:55:12.674Z,101181.58
2019-03-11T19:58:29.222Z,101180.22
2019-03-11T20:01:36.548Z,101182.37
2019-03-11T20:04:53.219Z,101191.14
2019-03-11T20:08:10.030Z,101196.09
2019-03-11T20:11:16.615Z,101209.16
2019-03-11T20:14:23.873Z,101212.66
2019-03-11T20:17:31.151Z,101209.61
2019-03-11T20:20:38.459Z,101222.34
2019-03-11T20:23:45.733Z,101218.12
2019-03-11T20:26:52.953Z,101218.12
2019-03-11T20:30:00.487Z,101213.16
2019-03-11T20:33:17.212Z,101225.74
2019-03-11T20:36:33.884Z,101238.94
2019-03-11T20:39:41.179Z,101250.14
2019-03-11T20:42:48.445Z,101250.64
2019-03-11T20:46:08.513Z,101260.28
2019-03-11T20:49:24.944Z,101254.75
2019-03-11T20:52:32.163Z,101260.45
2019-03-11T20:55:39.360Z,101261.70
2019-03-11T20:58:55.986Z,101273.46
2019-03-11T21:02:03.266Z,101270.09
2019-03-11T21:05:10.783Z,101279.45
2019-03-11T21:08:27.331Z,101284.84
2019-03-11T21:11:34.487Z,101301.05
2019-03-11T21:14:41.713Z,101299.72
2019-03-11T21:17:49.036Z,101302.69
2019-03-11T21:21:05.791Z,101309.41
2019-03-11T21:24:23.033Z,101314.94
2019-03-11T21:27:30.272Z,101318.00
2019-03-11T21:30:37.609Z,101305.85
2019-03-11T21:33:57.554Z,101320.14
2019-03-11T21:36:53.971Z,101332.36
2019-03-11T21:40:01.138Z,101330.62
2019-03-11T21:43:08.455Z,101323.45
2019-03-11T21:46:15.740Z,101325.19
2019-03-11T21:49:32.788Z,101325.13
2019-03-11T21:52:40.105Z,101316.73
2019-03-11T21:55:57.050Z,101311.95
2019-03-11T21:59:13.886Z,101315.03
2019-03-11T22:02:30.477Z,101317.98
2019-03-11T22:05:37.865Z,101348.53
2019-03-11T22:08:54.470Z,101354.84
2019-03-11T22:12:01.698Z,101364.58
2019-03-11T22:15:09.832Z,101373.09
2019-03-11T22:18:17.388Z,101374.36
2019-03-11T22:21:24.539Z,101375.96
2019-03-11T22:24:31.699Z,101370.98
2019-03-11T22:27:37.238Z,101383.30
2019-03-11T22:30:44.555Z,101380.77
2019-03-11T22:33:51.767Z,101374.39
2019-03-11T22:36:58.913Z,101374.34
2019-03-11T22:40:07.177Z,101387.56
2019-03-11T22:43:14.323Z,101392.64
2019-03-11T22:46:21.471Z,101384.22
2019-03-11T22:49:28.612Z,101375.72
2019-03-11T22:52:44.837Z,101381.63
2019-03-11T22:55:51.984Z,101404.10
2019-03-11T22:58:59.292Z,101403.74
2019-03-11T23:02:06.988Z,101418.92
2019-03-11T23:05:23.565Z,101431.21
2019-03-11T23:08:40.066Z,101434.62
2019-03-11T23:11:57.143Z,101436.27
2019-03-11T23:15:13.717Z,101446.90
2019-03-11T23:18:20.900Z,101467.16
2019-03-11T23:21:37.537Z,101465.47
2019-03-11T23:24:44.681Z,101466.36
2019-03-11T23:27:51.886Z,101471.84
2019-03-11T23:30:59.183Z,101476.89
2019-03-11T23:34:06.524Z,101478.98
2019-03-11T23:37:23.109Z,101475.56
2019-03-11T23:40:30.318Z,101478.57
2019-03-11T23:43:37.466Z,101472.27
2019-03-11T23:46:44.699Z,101473.50
2019-03-11T23:49:51.827Z,101473.91
2019-03-11T23:52:59.145Z,101469.67
2019-03-11T23:56:06.403Z,101467.56
2019-03-11T23:59:13.546Z,101461.64
